sensor_id;sensor_type;location;lat;lon;timestamp;P1;durP1;ratioP1;P2;durP2;ratioP2
12511;SDS011;6321;53.798;10.382;2023-02-11T00:00:07;53.67;;;27.37;;
12511;SDS011;6321;53.798;10.382;2023-02-11T00:02:33;42.80;;;25.43;;
12511;SDS011;6321;53.798;10.382;2023-02-11T00:04:59;46.47;;;27.67;;
12511;SDS011;6321;53.798;10.382;2023-02-11T00:07:29;53.77;;;30.10;;
12511;SDS011;6321;53.798;10.382;2023-02-11T00:09:55;47.23;;;26.70;;
12511;SDS011;6321;53.798;10.382;2023-02-11T00:12:21;47.93;;;24.83;;
12511;SDS011;6321;53.798;10.382;2023-02-11T00:14:47;47.40;;;26.77;;
12511;SDS011;6321;53.798;10.382;2023-02-11T00:17:13;52.60;;;27.90;;
12511;SDS011;6321;53.798;10.382;2023-02-11T00:19:39;52.67;;;29.10;;
12511;SDS011;6321;53.798;10.382;2023-02-11T00:22:05;47.73;;;23.70;;
12511;SDS011;6321;53.798;10.382;2023-02-11T00:24:31;41.73;;;24.53;;
12511;SDS011;6321;53.798;10.382;2023-02-11T00:26:57;51.00;;;26.27;;
12511;SDS011;6321;53.798;10.382;2023-02-11T00:29:23;43.97;;;26.03;;
12511;SDS011;6321;53.798;10.382;2023-02-11T00:31:49;43.10;;;23.37;;
12511;SDS011;6321;53.798;10.382;2023-02-11T00:34:15;40.57;;;24.37;;
12511;SDS011;6321;53.798;10.382;2023-02-11T00:36:41;48.00;;;27.10;;
12511;SDS011;6321;53.798;10.382;2023-02-11T00:39:07;45.17;;;25.97;;
12511;SDS011;6321;53.798;10.382;2023-02-11T00:41:33;44.60;;;25.37;;
12511;SDS011;6321;53.798;10.382;2023-02-11T00:44:00;38.50;;;23.83;;
12511;SDS011;6321;53.798;10.382;2023-02-11T00:46:26;50.33;;;25.03;;
12511;SDS011;6321;53.798;10.382;2023-02-11T00:48:51;43.10;;;23.90;;
12511;SDS011;6321;53.798;10.382;2023-02-11T00:51:21;43.73;;;24.70;;
12511;SDS011;6321;53.798;10.382;2023-02-11T00:53:47;50.57;;;25.53;;
12511;SDS011;6321;53.798;10.382;2023-02-11T00:56:13;47.07;;;24.93;;
12511;SDS011;6321;53.798;10.382;2023-02-11T00:58:39;38.90;;;20.90;;
12511;SDS011;6321;53.798;10.382;2023-02-11T01:01:05;28.43;;;18.40;;
12511;SDS011;6321;53.798;10.382;2023-02-11T01:03:31;43.17;;;23.50;;
12511;SDS011;6321;53.798;10.382;2023-02-11T01:05:57;37.63;;;24.13;;
12511;SDS011;6321;53.798;10.382;2023-02-11T01:08:23;41.80;;;24.00;;
12511;SDS011;6321;53.798;10.382;2023-02-11T01:10:53;47.13;;;24.50;;
12511;SDS011;6321;53.798;10.382;2023-02-11T01:13:19;31.50;;;20.33;;
12511;SDS011;6321;53.798;10.382;2023-02-11T01:15:45;35.67;;;22.73;;
12511;SDS011;6321;53.798;10.382;2023-02-11T01:18:11;37.07;;;21.50;;
12511;SDS011;6321;53.798;10.382;2023-02-11T01:20:37;43.43;;;23.63;;
12511;SDS011;6321;53.798;10.382;2023-02-11T01:23:03;39.93;;;22.63;;
12511;SDS011;6321;53.798;10.382;2023-02-11T01:25:29;37.33;;;22.37;;
12511;SDS011;6321;53.798;10.382;2023-02-11T01:27:55;38.90;;;18.93;;
12511;SDS011;6321;53.798;10.382;2023-02-11T01:30:21;31.43;;;19.03;;
12511;SDS011;6321;53.798;10.382;2023-02-11T01:32:46;41.23;;;22.27;;
12511;SDS011;6321;53.798;10.382;2023-02-11T01:35:12;36.77;;;19.90;;
12511;SDS011;6321;53.798;10.382;2023-02-11T01:37:38;33.23;;;19.50;;
12511;SDS011;6321;53.798;10.382;2023-02-11T01:40:05;33.70;;;17.70;;
12511;SDS011;6321;53.798;10.382;2023-02-11T01:42:31;34.70;;;21.00;;
12511;SDS011;6321;53.798;10.382;2023-02-11T01:44:58;33.03;;;18.80;;
12511;SDS011;6321;53.798;10.382;2023-02-11T01:47:24;42.50;;;21.97;;
12511;SDS011;6321;53.798;10.382;2023-02-11T01:49:57;41.77;;;24.20;;
12511;SDS011;6321;53.798;10.382;2023-02-11T01:52:25;34.60;;;20.47;;
12511;SDS011;6321;53.798;10.382;2023-02-11T01:54:53;35.40;;;18.17;;
12511;SDS011;6321;53.798;10.382;2023-02-11T01:57:39;31.37;;;19.13;;
12511;SDS011;6321;53.798;10.382;2023-02-11T02:00:09;29.97;;;18.10;;
12511;SDS011;6321;53.798;10.382;2023-02-11T02:02:42;37.87;;;19.27;;
12511;SDS011;6321;53.798;10.382;2023-02-11T02:05:18;30.13;;;16.23;;
12511;SDS011;6321;53.798;10.382;2023-02-11T02:07:47;34.00;;;17.17;;
12511;SDS011;6321;53.798;10.382;2023-02-11T02:10:15;26.87;;;16.00;;
12511;SDS011;6321;53.798;10.382;2023-02-11T02:12:42;27.70;;;15.67;;
12511;SDS011;6321;53.798;10.382;2023-02-11T02:15:21;29.73;;;17.10;;
12511;SDS011;6321;53.798;10.382;2023-02-11T02:22:56;29.40;;;16.80;;
12511;SDS011;6321;53.798;10.382;2023-02-11T02:25:34;25.73;;;12.57;;
12511;SDS011;6321;53.798;10.382;2023-02-11T02:33:13;31.50;;;17.53;;
12511;SDS011;6321;53.798;10.382;2023-02-11T02:36:01;22.80;;;13.93;;
12511;SDS011;6321;53.798;10.382;2023-02-11T02:41:16;32.73;;;17.10;;
12511;SDS011;6321;53.798;10.382;2023-02-11T02:43:47;32.27;;;18.87;;
12511;SDS011;6321;53.798;10.382;2023-02-11T02:48:39;22.37;;;12.87;;
12511;SDS011;6321;53.798;10.382;2023-02-11T02:54:37;33.37;;;18.27;;
12511;SDS011;6321;53.798;10.382;2023-02-11T02:56:42;32.07;;;17.90;;
12511;SDS011;6321;53.798;10.382;2023-02-11T02:59:17;29.40;;;16.20;;
12511;SDS011;6321;53.798;10.382;2023-02-11T03:02:01;36.63;;;20.20;;
12511;SDS011;6321;53.798;10.382;2023-02-11T03:04:33;37.07;;;19.33;;
12511;SDS011;6321;53.798;10.382;2023-02-11T03:12:14;27.70;;;14.17;;
12511;SDS011;6321;53.798;10.382;2023-02-11T03:14:40;38.10;;;19.07;;
12511;SDS011;6321;53.798;10.382;2023-02-11T03:17:06;35.33;;;20.03;;
12511;SDS011;6321;53.798;10.382;2023-02-11T03:19:40;27.53;;;15.00;;
12511;SDS011;6321;53.798;10.382;2023-02-11T03:22:12;30.37;;;15.63;;
12511;SDS011;6321;53.798;10.382;2023-02-11T03:24:41;32.80;;;17.73;;
12511;SDS011;6321;53.798;10.382;2023-02-11T03:27:27;41.70;;;19.80;;
12511;SDS011;6321;53.798;10.382;2023-02-11T03:32:31;43.47;;;23.60;;
12511;SDS011;6321;53.798;10.382;2023-02-11T03:37:29;41.60;;;19.60;;
12511;SDS011;6321;53.798;10.382;2023-02-11T03:40:02;37.60;;;20.67;;
12511;SDS011;6321;53.798;10.382;2023-02-11T03:42:31;34.17;;;18.40;;
12511;SDS011;6321;53.798;10.382;2023-02-11T03:45:05;39.80;;;21.33;;
12511;SDS011;6321;53.798;10.382;2023-02-11T03:47:34;33.20;;;18.27;;
12511;SDS011;6321;53.798;10.382;2023-02-11T03:50:00;33.43;;;17.40;;
12511;SDS011;6321;53.798;10.382;2023-02-11T03:52:27;40.47;;;19.80;;
12511;SDS011;6321;53.798;10.382;2023-02-11T03:54:54;43.70;;;21.47;;
12511;SDS011;6321;53.798;10.382;2023-02-11T03:57:21;31.70;;;18.30;;
12511;SDS011;6321;53.798;10.382;2023-02-11T03:59:54;32.47;;;16.87;;
12511;SDS011;6321;53.798;10.382;2023-02-11T04:02:21;34.50;;;19.07;;
12511;SDS011;6321;53.798;10.382;2023-02-11T04:04:48;36.60;;;19.23;;
12511;SDS011;6321;53.798;10.382;2023-02-11T04:07:14;33.90;;;17.60;;
12511;SDS011;6321;53.798;10.382;2023-02-11T04:09:40;35.40;;;17.63;;
12511;SDS011;6321;53.798;10.382;2023-02-11T04:12:06;21.33;;;11.37;;
12511;SDS011;6321;53.798;10.382;2023-02-11T04:14:32;31.63;;;16.30;;
12511;SDS011;6321;53.798;10.382;2023-02-11T04:16:58;27.60;;;13.60;;
12511;SDS011;6321;53.798;10.382;2023-02-11T04:19:24;35.13;;;16.73;;
12511;SDS011;6321;53.798;10.382;2023-02-11T04:21:50;35.20;;;17.20;;
12511;SDS011;6321;53.798;10.382;2023-02-11T04:24:16;34.30;;;18.27;;
12511;SDS011;6321;53.798;10.382;2023-02-11T04:26:42;24.23;;;13.50;;
12511;SDS011;6321;53.798;10.382;2023-02-11T04:29:08;26.83;;;13.80;;
12511;SDS011;6321;53.798;10.382;2023-02-11T04:31:34;34.50;;;19.97;;
12511;SDS011;6321;53.798;10.382;2023-02-11T04:34:00;29.13;;;12.73;;
12511;SDS011;6321;53.798;10.382;2023-02-11T04:36:26;32.57;;;18.37;;
12511;SDS011;6321;53.798;10.382;2023-02-11T04:38:51;37.70;;;18.53;;
12511;SDS011;6321;53.798;10.382;2023-02-11T04:41:17;30.63;;;16.23;;
12511;SDS011;6321;53.798;10.382;2023-02-11T04:43:43;29.50;;;16.33;;
12511;SDS011;6321;53.798;10.382;2023-02-11T04:46:09;35.43;;;18.13;;
12511;SDS011;6321;53.798;10.382;2023-02-11T04:48:35;35.77;;;17.13;;
12511;SDS011;6321;53.798;10.382;2023-02-11T04:51:01;32.87;;;17.43;;
12511;SDS011;6321;53.798;10.382;2023-02-11T04:53:27;39.13;;;20.00;;
12511;SDS011;6321;53.798;10.382;2023-02-11T04:55:53;27.13;;;15.13;;
12511;SDS011;6321;53.798;10.382;2023-02-11T04:58:19;29.53;;;14.70;;
12511;SDS011;6321;53.798;10.382;2023-02-11T05:00:45;28.67;;;14.53;;
12511;SDS011;6321;53.798;10.382;2023-02-11T05:03:11;29.97;;;13.60;;
12511;SDS011;6321;53.798;10.382;2023-02-11T05:05:38;32.07;;;16.77;;
12511;SDS011;6321;53.798;10.382;2023-02-11T05:08:04;24.03;;;12.53;;
12511;SDS011;6321;53.798;10.382;2023-02-11T05:10:30;23.33;;;12.90;;
12511;SDS011;6321;53.798;10.382;2023-02-11T05:12:56;30.87;;;15.93;;
12511;SDS011;6321;53.798;10.382;2023-02-11T05:15:22;36.60;;;16.70;;
12511;SDS011;6321;53.798;10.382;2023-02-11T05:17:48;30.90;;;13.70;;
12511;SDS011;6321;53.798;10.382;2023-02-11T05:20:14;28.70;;;15.90;;
12511;SDS011;6321;53.798;10.382;2023-02-11T05:22:40;28.13;;;15.17;;
12511;SDS011;6321;53.798;10.382;2023-02-11T05:25:06;22.77;;;14.17;;
12511;SDS011;6321;53.798;10.382;2023-02-11T05:27:32;29.13;;;15.13;;
12511;SDS011;6321;53.798;10.382;2023-02-11T05:29:58;26.40;;;14.30;;
12511;SDS011;6321;53.798;10.382;2023-02-11T05:32:24;25.47;;;13.33;;
12511;SDS011;6321;53.798;10.382;2023-02-11T05:34:50;23.53;;;13.97;;
12511;SDS011;6321;53.798;10.382;2023-02-11T05:37:16;25.60;;;15.17;;
12511;SDS011;6321;53.798;10.382;2023-02-11T05:39:42;28.33;;;14.40;;
12511;SDS011;6321;53.798;10.382;2023-02-11T05:42:08;23.53;;;11.87;;
12511;SDS011;6321;53.798;10.382;2023-02-11T05:44:34;18.40;;;8.67;;
12511;SDS011;6321;53.798;10.382;2023-02-11T05:47:00;19.43;;;11.80;;
12511;SDS011;6321;53.798;10.382;2023-02-11T05:49:26;19.87;;;11.33;;
12511;SDS011;6321;53.798;10.382;2023-02-11T05:51:52;20.87;;;11.40;;
12511;SDS011;6321;53.798;10.382;2023-02-11T05:54:18;23.77;;;14.30;;
12511;SDS011;6321;53.798;10.382;2023-02-11T05:56:44;26.80;;;13.63;;
12511;SDS011;6321;53.798;10.382;2023-02-11T05:59:11;24.57;;;14.27;;
12511;SDS011;6321;53.798;10.382;2023-02-11T06:01:37;14.73;;;9.40;;
12511;SDS011;6321;53.798;10.382;2023-02-11T06:04:03;23.67;;;11.97;;
12511;SDS011;6321;53.798;10.382;2023-02-11T06:06:29;15.10;;;10.33;;
12511;SDS011;6321;53.798;10.382;2023-02-11T06:08:55;22.00;;;11.93;;
12511;SDS011;6321;53.798;10.382;2023-02-11T06:11:22;24.30;;;10.53;;
12511;SDS011;6321;53.798;10.382;2023-02-11T06:13:48;22.20;;;12.60;;
12511;SDS011;6321;53.798;10.382;2023-02-11T06:16:13;22.40;;;13.50;;
12511;SDS011;6321;53.798;10.382;2023-02-11T06:18:40;23.17;;;11.63;;
12511;SDS011;6321;53.798;10.382;2023-02-11T06:21:09;23.27;;;14.77;;
12511;SDS011;6321;53.798;10.382;2023-02-11T06:23:35;18.27;;;10.47;;
12511;SDS011;6321;53.798;10.382;2023-02-11T06:26:05;21.83;;;12.03;;
12511;SDS011;6321;53.798;10.382;2023-02-11T06:28:31;29.17;;;13.63;;
12511;SDS011;6321;53.798;10.382;2023-02-11T06:31:03;24.77;;;12.43;;
12511;SDS011;6321;53.798;10.382;2023-02-11T06:33:30;18.20;;;12.43;;
12511;SDS011;6321;53.798;10.382;2023-02-11T06:35:56;26.43;;;15.37;;
12511;SDS011;6321;53.798;10.382;2023-02-11T06:38:22;27.90;;;13.73;;
12511;SDS011;6321;53.798;10.382;2023-02-11T06:40:48;17.20;;;8.93;;
12511;SDS011;6321;53.798;10.382;2023-02-11T06:43:14;23.77;;;12.10;;
12511;SDS011;6321;53.798;10.382;2023-02-11T06:45:40;15.80;;;11.00;;
12511;SDS011;6321;53.798;10.382;2023-02-11T06:48:06;18.27;;;12.00;;
12511;SDS011;6321;53.798;10.382;2023-02-11T06:50:32;22.73;;;11.33;;
12511;SDS011;6321;53.798;10.382;2023-02-11T06:52:58;11.10;;;8.10;;
12511;SDS011;6321;53.798;10.382;2023-02-11T06:55:24;16.07;;;7.97;;
12511;SDS011;6321;53.798;10.382;2023-02-11T06:57:50;16.53;;;9.93;;
12511;SDS011;6321;53.798;10.382;2023-02-11T07:00:16;18.97;;;12.77;;
12511;SDS011;6321;53.798;10.382;2023-02-11T07:02:42;18.93;;;11.93;;
12511;SDS011;6321;53.798;10.382;2023-02-11T07:05:08;16.07;;;10.77;;
12511;SDS011;6321;53.798;10.382;2023-02-11T07:07:35;24.97;;;11.37;;
12511;SDS011;6321;53.798;10.382;2023-02-11T07:10:01;18.07;;;12.53;;
12511;SDS011;6321;53.798;10.382;2023-02-11T07:12:30;21.27;;;10.60;;
12511;SDS011;6321;53.798;10.382;2023-02-11T07:14:56;23.50;;;12.00;;
12511;SDS011;6321;53.798;10.382;2023-02-11T07:17:22;22.77;;;13.00;;
12511;SDS011;6321;53.798;10.382;2023-02-11T07:19:48;17.23;;;9.90;;
12511;SDS011;6321;53.798;10.382;2023-02-11T07:22:14;23.03;;;13.20;;
12511;SDS011;6321;53.798;10.382;2023-02-11T07:24:40;21.43;;;11.47;;
12511;SDS011;6321;53.798;10.382;2023-02-11T07:27:06;20.57;;;12.33;;
12511;SDS011;6321;53.798;10.382;2023-02-11T07:29:32;22.70;;;13.47;;
12511;SDS011;6321;53.798;10.382;2023-02-11T07:31:58;22.07;;;13.17;;
12511;SDS011;6321;53.798;10.382;2023-02-11T07:34:24;22.67;;;14.60;;
12511;SDS011;6321;53.798;10.382;2023-02-11T07:36:50;28.47;;;20.43;;
12511;SDS011;6321;53.798;10.382;2023-02-11T07:39:16;30.23;;;19.67;;
12511;SDS011;6321;53.798;10.382;2023-02-11T07:41:43;19.10;;;13.57;;
12511;SDS011;6321;53.798;10.382;2023-02-11T07:44:11;33.67;;;22.47;;
12511;SDS011;6321;53.798;10.382;2023-02-11T07:46:37;28.33;;;16.23;;
12511;SDS011;6321;53.798;10.382;2023-02-11T07:49:07;35.90;;;26.43;;
12511;SDS011;6321;53.798;10.382;2023-02-11T07:51:33;15.50;;;9.77;;
12511;SDS011;6321;53.798;10.382;2023-02-11T07:53:59;19.43;;;7.67;;
12511;SDS011;6321;53.798;10.382;2023-02-11T07:56:25;23.67;;;12.23;;
12511;SDS011;6321;53.798;10.382;2023-02-11T07:58:51;12.70;;;8.47;;
12511;SDS011;6321;53.798;10.382;2023-02-11T08:01:19;15.00;;;9.43;;
12511;SDS011;6321;53.798;10.382;2023-02-11T08:03:46;17.10;;;10.87;;
12511;SDS011;6321;53.798;10.382;2023-02-11T08:06:13;12.90;;;8.50;;
12511;SDS011;6321;53.798;10.382;2023-02-11T08:08:40;20.27;;;10.57;;
12511;SDS011;6321;53.798;10.382;2023-02-11T08:11:06;20.50;;;10.10;;
12511;SDS011;6321;53.798;10.382;2023-02-11T08:13:33;13.10;;;7.83;;
12511;SDS011;6321;53.798;10.382;2023-02-11T08:15:59;21.93;;;10.80;;
12511;SDS011;6321;53.798;10.382;2023-02-11T08:18:25;21.90;;;12.80;;
12511;SDS011;6321;53.798;10.382;2023-02-11T08:20:51;14.43;;;8.80;;
12511;SDS011;6321;53.798;10.382;2023-02-11T08:23:17;13.40;;;8.93;;
12511;SDS011;6321;53.798;10.382;2023-02-11T08:25:43;21.80;;;11.97;;
12511;SDS011;6321;53.798;10.382;2023-02-11T08:28:09;18.67;;;11.10;;
12511;SDS011;6321;53.798;10.382;2023-02-11T08:30:34;16.60;;;11.97;;
12511;SDS011;6321;53.798;10.382;2023-02-11T08:33:00;12.93;;;8.30;;
12511;SDS011;6321;53.798;10.382;2023-02-11T08:35:26;16.20;;;11.03;;
12511;SDS011;6321;53.798;10.382;2023-02-11T08:37:52;18.43;;;11.30;;
12511;SDS011;6321;53.798;10.382;2023-02-11T08:40:19;13.63;;;7.77;;
12511;SDS011;6321;53.798;10.382;2023-02-11T08:42:45;20.83;;;10.90;;
12511;SDS011;6321;53.798;10.382;2023-02-11T08:45:11;20.77;;;13.43;;
12511;SDS011;6321;53.798;10.382;2023-02-11T08:47:37;17.97;;;11.27;;
12511;SDS011;6321;53.798;10.382;2023-02-11T08:50:03;18.77;;;11.00;;
12511;SDS011;6321;53.798;10.382;2023-02-11T08:52:30;19.27;;;11.90;;
12511;SDS011;6321;53.798;10.382;2023-02-11T08:54:55;18.80;;;11.13;;
12511;SDS011;6321;53.798;10.382;2023-02-11T08:57:22;15.90;;;10.47;;
12511;SDS011;6321;53.798;10.382;2023-02-11T08:59:48;14.50;;;8.60;;
12511;SDS011;6321;53.798;10.382;2023-02-11T09:02:14;19.20;;;11.07;;
12511;SDS011;6321;53.798;10.382;2023-02-11T09:04:40;17.03;;;9.43;;
12511;SDS011;6321;53.798;10.382;2023-02-11T09:07:06;20.20;;;9.77;;
12511;SDS011;6321;53.798;10.382;2023-02-11T09:09:32;19.63;;;10.80;;
12511;SDS011;6321;53.798;10.382;2023-02-11T09:11:58;19.10;;;10.83;;
12511;SDS011;6321;53.798;10.382;2023-02-11T09:14:25;21.13;;;12.87;;
12511;SDS011;6321;53.798;10.382;2023-02-11T09:16:51;16.63;;;8.97;;
12511;SDS011;6321;53.798;10.382;2023-02-11T09:19:17;16.03;;;8.47;;
12511;SDS011;6321;53.798;10.382;2023-02-11T09:21:43;15.43;;;8.93;;
12511;SDS011;6321;53.798;10.382;2023-02-11T09:24:10;12.27;;;7.80;;
12511;SDS011;6321;53.798;10.382;2023-02-11T09:26:36;15.23;;;8.40;;
12511;SDS011;6321;53.798;10.382;2023-02-11T09:29:03;13.10;;;7.43;;
12511;SDS011;6321;53.798;10.382;2023-02-11T09:31:30;18.60;;;7.27;;
12511;SDS011;6321;53.798;10.382;2023-02-11T09:33:57;15.13;;;8.53;;
12511;SDS011;6321;53.798;10.382;2023-02-11T09:36:25;13.20;;;8.23;;
12511;SDS011;6321;53.798;10.382;2023-02-11T09:38:51;20.97;;;9.33;;
12511;SDS011;6321;53.798;10.382;2023-02-11T09:43:51;14.37;;;7.20;;
12511;SDS011;6321;53.798;10.382;2023-02-11T09:46:17;11.57;;;5.83;;
12511;SDS011;6321;53.798;10.382;2023-02-11T09:48:45;16.43;;;9.40;;
12511;SDS011;6321;53.798;10.382;2023-02-11T09:51:15;10.13;;;5.97;;
12511;SDS011;6321;53.798;10.382;2023-02-11T09:53:43;13.93;;;6.70;;
12511;SDS011;6321;53.798;10.382;2023-02-11T09:56:10;14.33;;;6.03;;
12511;SDS011;6321;53.798;10.382;2023-02-11T09:58:40;12.00;;;5.93;;
12511;SDS011;6321;53.798;10.382;2023-02-11T10:03:57;7.97;;;5.37;;
12511;SDS011;6321;53.798;10.382;2023-02-11T10:11:32;8.83;;;6.23;;
12511;SDS011;6321;53.798;10.382;2023-02-11T10:14:09;19.83;;;11.70;;
12511;SDS011;6321;53.798;10.382;2023-02-11T10:19:19;21.03;;;14.17;;
12511;SDS011;6321;53.798;10.382;2023-02-11T10:22:03;18.67;;;11.67;;
12511;SDS011;6321;53.798;10.382;2023-02-11T10:24:31;18.43;;;10.60;;
12511;SDS011;6321;53.798;10.382;2023-02-11T10:26:58;22.73;;;14.13;;
12511;SDS011;6321;53.798;10.382;2023-02-11T10:29:26;26.10;;;13.47;;
12511;SDS011;6321;53.798;10.382;2023-02-11T10:31:55;18.53;;;9.43;;
12511;SDS011;6321;53.798;10.382;2023-02-11T10:34:23;28.90;;;16.73;;
12511;SDS011;6321;53.798;10.382;2023-02-11T10:36:49;23.80;;;12.27;;
12511;SDS011;6321;53.798;10.382;2023-02-11T10:41:43;16.77;;;9.30;;
12511;SDS011;6321;53.798;10.382;2023-02-11T10:44:53;20.90;;;12.10;;
12511;SDS011;6321;53.798;10.382;2023-02-11T10:46:58;16.53;;;10.83;;
12511;SDS011;6321;53.798;10.382;2023-02-11T10:49:34;23.50;;;14.57;;
12511;SDS011;6321;53.798;10.382;2023-02-11T10:54:38;15.57;;;7.27;;
12511;SDS011;6321;53.798;10.382;2023-02-11T10:57:04;20.63;;;11.70;;
12511;SDS011;6321;53.798;10.382;2023-02-11T11:02:04;26.07;;;13.03;;
12511;SDS011;6321;53.798;10.382;2023-02-11T11:04:41;16.00;;;7.30;;
12511;SDS011;6321;53.798;10.382;2023-02-11T11:07:17;22.43;;;10.30;;
12511;SDS011;6321;53.798;10.382;2023-02-11T11:09:48;17.10;;;7.73;;
12511;SDS011;6321;53.798;10.382;2023-02-11T11:17:25;11.67;;;5.20;;
12511;SDS011;6321;53.798;10.382;2023-02-11T11:19:53;10.43;;;5.50;;
12511;SDS011;6321;53.798;10.382;2023-02-11T11:22:20;13.27;;;4.47;;
12511;SDS011;6321;53.798;10.382;2023-02-11T11:24:46;10.63;;;5.70;;
12511;SDS011;6321;53.798;10.382;2023-02-11T11:27:19;15.17;;;5.20;;
12511;SDS011;6321;53.798;10.382;2023-02-11T11:29:47;16.40;;;7.07;;
12511;SDS011;6321;53.798;10.382;2023-02-11T11:34:49;13.20;;;4.63;;
12511;SDS011;6321;53.798;10.382;2023-02-11T11:37:26;16.87;;;6.40;;
12511;SDS011;6321;53.798;10.382;2023-02-11T11:42:37;12.60;;;4.47;;
12511;SDS011;6321;53.798;10.382;2023-02-11T11:48:30;10.83;;;4.50;;
12511;SDS011;6321;53.798;10.382;2023-02-11T11:50:36;10.63;;;3.83;;
12511;SDS011;6321;53.798;10.382;2023-02-11T11:53:22;12.30;;;4.70;;
12511;SDS011;6321;53.798;10.382;2023-02-11T11:55:52;17.57;;;7.70;;
12511;SDS011;6321;53.798;10.382;2023-02-11T11:58:21;11.37;;;4.43;;
12511;SDS011;6321;53.798;10.382;2023-02-11T12:00:59;16.33;;;5.53;;
12511;SDS011;6321;53.798;10.382;2023-02-11T12:11:25;8.53;;;5.10;;
12511;SDS011;6321;53.798;10.382;2023-02-11T12:16:43;16.50;;;6.33;;
12511;SDS011;6321;53.798;10.382;2023-02-11T12:22:00;14.47;;;4.80;;
12511;SDS011;6321;53.798;10.382;2023-02-11T12:27:20;12.27;;;4.70;;
12511;SDS011;6321;53.798;10.382;2023-02-11T12:32:21;16.63;;;6.13;;
12511;SDS011;6321;53.798;10.382;2023-02-11T12:35:05;10.23;;;4.63;;
12511;SDS011;6321;53.798;10.382;2023-02-11T12:42:39;7.10;;;3.50;;
12511;SDS011;6321;53.798;10.382;2023-02-11T12:55:36;8.13;;;3.67;;
12511;SDS011;6321;53.798;10.382;2023-02-11T12:58:03;7.93;;;4.80;;
12511;SDS011;6321;53.798;10.382;2023-02-11T13:00:43;18.50;;;9.50;;
12511;SDS011;6321;53.798;10.382;2023-02-11T13:03:11;23.40;;;12.93;;
12511;SDS011;6321;53.798;10.382;2023-02-11T13:05:39;15.70;;;11.43;;
12511;SDS011;6321;53.798;10.382;2023-02-11T13:13:51;18.13;;;8.43;;
12511;SDS011;6321;53.798;10.382;2023-02-11T13:16:24;10.73;;;7.13;;
12511;SDS011;6321;53.798;10.382;2023-02-11T13:21:30;11.17;;;6.07;;
12511;SDS011;6321;53.798;10.382;2023-02-11T13:26:41;14.37;;;5.30;;
12511;SDS011;6321;53.798;10.382;2023-02-11T13:29:10;9.47;;;4.97;;
12511;SDS011;6321;53.798;10.382;2023-02-11T13:31:40;19.23;;;9.07;;
12511;SDS011;6321;53.798;10.382;2023-02-11T13:34:25;9.50;;;4.30;;
12511;SDS011;6321;53.798;10.382;2023-02-11T13:36:58;15.73;;;6.77;;
12511;SDS011;6321;53.798;10.382;2023-02-11T13:39:24;15.57;;;6.77;;
12511;SDS011;6321;53.798;10.382;2023-02-11T13:41:50;18.90;;;8.67;;
12511;SDS011;6321;53.798;10.382;2023-02-11T13:44:26;19.03;;;8.63;;
12511;SDS011;6321;53.798;10.382;2023-02-11T13:46:57;15.60;;;7.03;;
12511;SDS011;6321;53.798;10.382;2023-02-11T13:49:25;19.37;;;10.60;;
12511;SDS011;6321;53.798;10.382;2023-02-11T13:51:52;24.00;;;10.27;;
12511;SDS011;6321;53.798;10.382;2023-02-11T13:54:26;23.43;;;9.30;;
12511;SDS011;6321;53.798;10.382;2023-02-11T14:02:05;27.50;;;10.40;;
12511;SDS011;6321;53.798;10.382;2023-02-11T14:10:50;14.63;;;6.80;;
12511;SDS011;6321;53.798;10.382;2023-02-11T14:13:30;19.53;;;5.77;;
12511;SDS011;6321;53.798;10.382;2023-02-11T14:16:03;22.20;;;7.53;;
12511;SDS011;6321;53.798;10.382;2023-02-11T14:23:47;11.47;;;5.37;;
12511;SDS011;6321;53.798;10.382;2023-02-11T14:31:19;10.87;;;5.03;;
12511;SDS011;6321;53.798;10.382;2023-02-11T14:36:25;21.13;;;9.97;;
12511;SDS011;6321;53.798;10.382;2023-02-11T14:39:33;20.93;;;9.03;;
12511;SDS011;6321;53.798;10.382;2023-02-11T14:41:48;18.03;;;8.53;;
12511;SDS011;6321;53.798;10.382;2023-02-11T14:44:18;11.83;;;5.67;;
12511;SDS011;6321;53.798;10.382;2023-02-11T14:46:45;9.10;;;5.50;;
12511;SDS011;6321;53.798;10.382;2023-02-11T14:49:33;9.93;;;5.77;;
12511;SDS011;6321;53.798;10.382;2023-02-11T14:51:59;9.83;;;4.73;;
12511;SDS011;6321;53.798;10.382;2023-02-11T14:54:27;17.10;;;9.50;;
12511;SDS011;6321;53.798;10.382;2023-02-11T14:57:06;21.10;;;17.13;;
12511;SDS011;6321;53.798;10.382;2023-02-11T14:59:33;10.60;;;6.57;;
12511;SDS011;6321;53.798;10.382;2023-02-11T15:01:59;12.03;;;7.50;;
12511;SDS011;6321;53.798;10.382;2023-02-11T15:04:28;13.90;;;7.00;;
12511;SDS011;6321;53.798;10.382;2023-02-11T15:06:55;14.60;;;6.73;;
12511;SDS011;6321;53.798;10.382;2023-02-11T15:12:22;15.60;;;8.07;;
12511;SDS011;6321;53.798;10.382;2023-02-11T15:14:49;17.97;;;9.20;;
12511;SDS011;6321;53.798;10.382;2023-02-11T15:17:18;14.73;;;8.40;;
12511;SDS011;6321;53.798;10.382;2023-02-11T15:19:46;15.67;;;8.97;;
12511;SDS011;6321;53.798;10.382;2023-02-11T15:22:17;12.97;;;8.67;;
12511;SDS011;6321;53.798;10.382;2023-02-11T15:24:50;11.07;;;7.53;;
12511;SDS011;6321;53.798;10.382;2023-02-11T15:27:22;15.20;;;7.67;;
12511;SDS011;6321;53.798;10.382;2023-02-11T15:29:49;14.03;;;8.90;;
12511;SDS011;6321;53.798;10.382;2023-02-11T15:34:42;16.23;;;10.43;;
12511;SDS011;6321;53.798;10.382;2023-02-11T15:37:10;24.17;;;14.60;;
12511;SDS011;6321;53.798;10.382;2023-02-11T15:39:38;60.73;;;41.47;;
12511;SDS011;6321;53.798;10.382;2023-02-11T15:42:14;31.80;;;19.87;;
12511;SDS011;6321;53.798;10.382;2023-02-11T15:44:40;22.53;;;13.70;;
12511;SDS011;6321;53.798;10.382;2023-02-11T15:47:09;20.07;;;8.17;;
12511;SDS011;6321;53.798;10.382;2023-02-11T15:49:35;23.53;;;10.17;;
12511;SDS011;6321;53.798;10.382;2023-02-11T15:52:02;19.57;;;8.33;;
12511;SDS011;6321;53.798;10.382;2023-02-11T15:54:28;17.90;;;9.93;;
12511;SDS011;6321;53.798;10.382;2023-02-11T15:57:02;25.90;;;14.47;;
12511;SDS011;6321;53.798;10.382;2023-02-11T15:59:32;35.13;;;24.67;;
12511;SDS011;6321;53.798;10.382;2023-02-11T16:02:06;25.90;;;14.70;;
12511;SDS011;6321;53.798;10.382;2023-02-11T16:04:32;21.10;;;13.17;;
12511;SDS011;6321;53.798;10.382;2023-02-11T16:06:58;22.50;;;13.33;;
12511;SDS011;6321;53.798;10.382;2023-02-11T16:09:34;23.07;;;12.27;;
12511;SDS011;6321;53.798;10.382;2023-02-11T16:12:16;18.50;;;9.13;;
12511;SDS011;6321;53.798;10.382;2023-02-11T16:14:46;16.80;;;9.13;;
12511;SDS011;6321;53.798;10.382;2023-02-11T16:19:45;17.57;;;8.03;;
12511;SDS011;6321;53.798;10.382;2023-02-11T16:22:19;17.00;;;12.73;;
12511;SDS011;6321;53.798;10.382;2023-02-11T16:24:47;18.90;;;9.00;;
12511;SDS011;6321;53.798;10.382;2023-02-11T16:27:22;25.20;;;15.63;;
12511;SDS011;6321;53.798;10.382;2023-02-11T16:29:49;21.07;;;9.43;;
12511;SDS011;6321;53.798;10.382;2023-02-11T16:32:16;23.10;;;10.20;;
12511;SDS011;6321;53.798;10.382;2023-02-11T16:34:43;24.00;;;9.87;;
12511;SDS011;6321;53.798;10.382;2023-02-11T16:37:09;23.17;;;10.53;;
12511;SDS011;6321;53.798;10.382;2023-02-11T16:39:35;19.30;;;8.70;;
12511;SDS011;6321;53.798;10.382;2023-02-11T16:42:01;17.77;;;8.23;;
12511;SDS011;6321;53.798;10.382;2023-02-11T16:44:27;24.43;;;8.33;;
12511;SDS011;6321;53.798;10.382;2023-02-11T16:46:53;16.60;;;8.13;;
12511;SDS011;6321;53.798;10.382;2023-02-11T16:51:46;22.93;;;11.87;;
12511;SDS011;6321;53.798;10.382;2023-02-11T16:54:13;39.30;;;23.30;;